createdAt,value
2023-01-11T00:00:43.204Z,1.50
2023-01-11T00:03:13.944Z,0.98
2023-01-11T00:05:45.835Z,3.80
2023-01-11T00:08:16.139Z,4.53
2023-01-11T00:13:16.506Z,6.50
2023-01-11T00:15:46.747Z,1.25
2023-01-11T00:18:16.943Z,2.65
2023-01-11T00:23:16.505Z,4.85
2023-01-11T00:28:16.181Z,1.58
2023-01-11T00:33:16.249Z,1.45
2023-01-11T00:38:35.962Z,2.25
2023-01-11T00:41:26.026Z,1.58
2023-01-11T00:44:14.316Z,6.93
2023-01-11T00:47:03.353Z,2.55
2023-01-11T00:49:34.023Z,6.35
2023-01-11T00:52:06.769Z,6.25
2023-01-11T00:54:40.750Z,1.20
2023-01-11T00:57:11.341Z,2.30
2023-01-11T00:59:41.794Z,7.03
2023-01-11T01:02:13.662Z,2.67
2023-01-11T01:04:43.977Z,1.10
2023-01-11T01:07:14.116Z,4.28
2023-01-11T01:09:44.243Z,2.05
2023-01-11T01:12:34.191Z,1.98
2023-01-11T01:15:04.724Z,1.52
2023-01-11T01:17:34.992Z,4.35
2023-01-11T01:20:05.797Z,2.00
2023-01-11T01:22:36.543Z,4.32
2023-01-11T01:25:07.079Z,1.88
2023-01-11T01:27:37.286Z,3.95
2023-01-11T01:32:37.891Z,4.72
2023-01-11T01:35:09.469Z,2.55
2023-01-11T01:37:39.862Z,4.00
2023-01-11T01:40:10.709Z,5.25
2023-01-11T01:42:40.905Z,4.95
2023-01-11T01:47:58.059Z,1.42
2023-01-11T01:50:36.463Z,3.45
2023-01-11T01:53:15.965Z,5.72
2023-01-11T01:55:50.711Z,4.20
2023-01-11T01:58:24.524Z,4.35
2023-01-11T02:00:54.928Z,1.30
2023-01-11T02:03:28.517Z,1.52
2023-01-11T02:05:58.748Z,5.05
2023-01-11T02:11:26.217Z,1.13
2023-01-11T02:13:58.027Z,1.25
2023-01-11T02:16:28.435Z,5.07
2023-01-11T02:19:00.009Z,1.42
2023-01-11T02:21:52.310Z,3.55
2023-01-11T02:24:34.347Z,6.07
2023-01-11T02:27:28.795Z,2.60
2023-01-11T02:30:03.672Z,6.70
2023-01-11T02:32:38.446Z,1.58
2023-01-11T02:35:45.155Z,5.53
2023-01-11T02:38:34.803Z,5.30
2023-01-11T02:41:21.526Z,5.78
2023-01-11T02:44:23.513Z,2.70
2023-01-11T02:47:00.419Z,6.60
2023-01-11T02:49:37.955Z,9.60
2023-01-11T02:52:22.116Z,5.20
2023-01-11T02:54:56.994Z,2.22
2023-01-11T02:57:30.664Z,4.57
2023-01-11T03:00:02.240Z,4.18
2023-01-11T03:02:32.551Z,8.10
2023-01-11T03:05:02.788Z,7.30
2023-01-11T03:10:42.479Z,13.73
2023-01-11T03:13:33.657Z,5.38
2023-01-11T03:16:25.438Z,11.27
2023-01-11T03:18:55.696Z,13.10
2023-01-11T03:21:52.141Z,9.70
2023-01-11T03:24:34.799Z,12.63
2023-01-11T03:27:16.860Z,4.32
2023-01-11T03:29:59.306Z,4.65
2023-01-11T03:32:39.110Z,8.30
2023-01-11T03:35:27.794Z,5.90
2023-01-11T03:38:14.603Z,6.97
2023-01-11T03:40:51.282Z,13.57
2023-01-11T03:43:24.843Z,10.88
2023-01-11T03:46:13.190Z,12.63
2023-01-11T03:49:01.530Z,3.70
2023-01-11T03:51:36.880Z,8.35
2023-01-11T03:54:09.969Z,7.20
2023-01-11T03:57:03.251Z,4.70
2023-01-11T03:59:34.122Z,11.60
2023-01-11T04:02:04.593Z,9.90
2023-01-11T04:04:34.821Z,3.97
2023-01-11T04:09:35.188Z,14.82
2023-01-11T04:12:06.861Z,4.90
2023-01-11T04:14:37.017Z,10.63
2023-01-11T04:17:07.339Z,11.68
2023-01-11T04:22:07.243Z,6.05
2023-01-11T04:24:37.363Z,5.72
2023-01-11T04:27:10.737Z,6.88
2023-01-11T04:29:41.632Z,7.93
2023-01-11T04:34:41.206Z,10.57
2023-01-11T04:37:13.254Z,10.13
2023-01-11T04:39:43.511Z,5.97
2023-01-11T04:44:53.804Z,11.95
2023-01-11T04:47:25.775Z,9.23
2023-01-11T04:49:56.043Z,9.82
2023-01-11T04:54:55.712Z,8.82
2023-01-11T04:57:26.827Z,8.25
2023-01-11T04:59:57.072Z,12.48
2023-01-11T05:04:56.668Z,10.43
2023-01-11T05:07:26.649Z,18.42
2023-01-11T05:09:56.633Z,12.43
2023-01-11T05:12:27.031Z,7.55
2023-01-11T05:14:58.340Z,9.80
2023-01-11T05:17:28.611Z,16.25
2023-01-11T05:22:28.352Z,18.98
2023-01-11T05:27:28.048Z,13.02
2023-01-11T05:29:58.180Z,15.82
2023-01-11T05:32:28.455Z,11.48
2023-01-11T05:37:28.337Z,12.75
2023-01-11T05:39:58.695Z,17.88
2023-01-11T05:42:28.657Z,10.93
2023-01-11T05:45:16.629Z,14.07
2023-01-11T05:47:47.356Z,16.60
2023-01-11T05:50:17.958Z,10.32
2023-01-11T05:52:48.304Z,10.65
2023-01-11T05:57:48.526Z,14.88
2023-01-11T06:00:19.339Z,17.65
2023-01-11T06:02:49.823Z,11.82
2023-01-11T06:05:20.154Z,15.50
2023-01-11T06:10:20.820Z,8.57
2023-01-11T06:13:14.038Z,8.93
2023-01-11T06:15:44.683Z,15.60
2023-01-11T06:18:14.949Z,12.60
2023-01-11T06:23:14.581Z,10.57
2023-01-11T06:25:45.435Z,13.55
2023-01-11T06:28:16.389Z,8.55
2023-01-11T06:30:52.325Z,10.63
2023-01-11T06:33:23.975Z,9.98
2023-01-11T06:35:54.897Z,5.28
2023-01-11T06:38:26.990Z,5.57
2023-01-11T06:41:01.838Z,12.05
2023-01-11T06:43:33.498Z,8.57
2023-01-11T06:46:04.022Z,9.60
2023-01-11T06:48:34.253Z,21.25
2023-01-11T06:51:04.544Z,13.02
2023-01-11T06:56:04.319Z,10.40
2023-01-11T07:01:04.764Z,7.13
2023-01-11T07:03:35.126Z,9.50
2023-01-11T07:06:05.960Z,10.88
2023-01-11T07:08:36.135Z,14.90
2023-01-11T07:11:06.461Z,9.50
2023-01-11T07:13:36.926Z,11.30
2023-01-11T07:16:07.464Z,11.63
2023-01-11T07:18:38.518Z,9.88
2023-01-11T07:21:08.829Z,14.43
2023-01-11T07:26:08.635Z,9.07
2023-01-11T07:31:08.335Z,7.65
2023-01-11T07:36:08.516Z,13.60
2023-01-11T07:38:38.711Z,9.73
2023-01-11T07:41:28.960Z,16.02
2023-01-11T07:43:59.368Z,15.73
2023-01-11T07:46:29.777Z,15.68
2023-01-11T07:49:00.016Z,15.68
2023-01-11T07:54:03.673Z,15.00
2023-01-11T07:56:34.407Z,10.85
2023-01-11T07:59:04.555Z,14.65
2023-01-11T08:01:34.960Z,12.27
2023-01-11T08:04:06.592Z,16.25
2023-01-11T08:06:36.793Z,14.18
2023-01-11T08:11:54.870Z,13.43
2023-01-11T08:14:43.543Z,9.15
2023-01-11T08:17:17.297Z,13.00
2023-01-11T08:19:47.613Z,13.73
2023-01-11T08:22:19.354Z,13.50
2023-01-11T08:24:49.710Z,13.75
2023-01-11T08:29:49.285Z,13.45
2023-01-11T08:32:19.649Z,12.80
2023-01-11T08:34:50.000Z,14.55
2023-01-11T08:39:49.986Z,11.88
2023-01-11T08:42:20.201Z,13.43
2023-01-11T08:44:51.392Z,20.50
2023-01-11T08:47:21.711Z,26.88
2023-01-11T08:52:21.814Z,17.10
2023-01-11T08:54:52.085Z,18.13
2023-01-11T08:59:52.371Z,12.95
2023-01-11T09:02:22.881Z,13.88
2023-01-11T09:04:52.997Z,15.43
2023-01-11T09:07:23.146Z,13.60
2023-01-11T09:09:53.475Z,14.70
2023-01-11T09:12:23.719Z,13.85
2023-01-11T09:14:53.853Z,10.85
2023-01-11T09:17:24.194Z,16.38
2023-01-11T09:19:54.602Z,14.70
2023-01-11T09:22:25.084Z,11.77
2023-01-11T09:24:55.326Z,10.65
2023-01-11T09:27:25.528Z,8.95
2023-01-11T09:29:55.846Z,8.35
2023-01-11T09:34:59.057Z,9.25
2023-01-11T09:37:29.536Z,5.43
2023-01-11T09:40:18.015Z,11.38
2023-01-11T09:42:55.774Z,4.05
2023-01-11T09:45:32.793Z,5.32
2023-01-11T09:48:24.357Z,2.63
2023-01-11T09:50:54.969Z,12.40
2023-01-11T09:53:36.942Z,5.50
2023-01-11T09:56:14.479Z,8.80
2023-01-11T09:58:54.814Z,5.63
2023-01-11T10:01:44.196Z,2.25
2023-01-11T10:04:34.787Z,3.83
2023-01-11T10:07:26.188Z,4.40
2023-01-11T10:18:38.956Z,4.68
2023-01-11T10:19:50.497Z,2.60
2023-01-11T10:22:32.851Z,9.52
2023-01-11T10:25:35.693Z,3.92
2023-01-11T10:28:21.256Z,8.75
2023-01-11T10:31:00.546Z,4.03
2023-01-11T10:34:09.445Z,7.57
2023-01-11T10:37:20.132Z,2.22
2023-01-11T10:40:20.221Z,3.08
2023-01-11T10:43:04.885Z,7.72
2023-01-11T10:45:51.480Z,5.20
2023-01-11T10:48:28.672Z,5.53
2023-01-11T10:51:28.550Z,4.95
2023-01-11T10:54:15.203Z,6.65
2023-01-11T10:57:21.912Z,2.05
2023-01-11T11:00:23.906Z,3.85
2023-01-11T11:03:15.534Z,3.05
2023-01-11T11:06:21.845Z,1.85
2023-01-11T11:08:57.752Z,3.45
2023-01-11T11:11:27.880Z,2.40
2023-01-11T11:16:55.244Z,5.57
2023-01-11T11:19:31.729Z,6.68
2023-01-11T11:24:45.820Z,10.90
2023-01-11T11:27:34.649Z,2.65
2023-01-11T11:30:05.707Z,4.78
2023-01-11T11:32:42.727Z,6.22
2023-01-11T11:35:35.729Z,4.45
2023-01-11T11:38:06.677Z,1.77
2023-01-11T11:40:39.523Z,4.47
2023-01-11T11:43:12.630Z,8.52
2023-01-11T11:45:57.384Z,3.13
2023-01-11T11:48:33.505Z,3.90
2023-01-11T11:51:07.016Z,12.10
2023-01-11T11:54:06.146Z,1.92
2023-01-11T11:56:42.996Z,1.67
2023-01-11T11:59:18.367Z,7.40
2023-01-11T12:01:57.119Z,2.22
2023-01-11T12:04:48.506Z,2.03
2023-01-11T12:07:22.407Z,4.15
2023-01-11T12:10:10.942Z,6.47
2023-01-11T12:12:55.643Z,7.43
2023-01-11T12:15:34.139Z,4.95
2023-01-11T12:18:29.634Z,4.18
2023-01-11T12:21:24.245Z,5.80
2023-01-11T12:24:09.827Z,2.60
2023-01-11T12:26:55.981Z,3.15
2023-01-11T12:29:28.938Z,5.40
2023-01-11T12:32:20.019Z,4.55
2023-01-11T12:35:11.178Z,7.80
2023-01-11T12:38:22.191Z,3.42
2023-01-11T12:41:09.603Z,12.95
2023-01-11T12:43:54.949Z,5.93
2023-01-11T12:46:49.748Z,2.28
2023-01-11T12:49:34.790Z,0.93
2023-01-11T12:52:13.942Z,1.05
2023-01-11T12:54:55.183Z,1.00
2023-01-11T12:58:11.010Z,1.02
2023-01-11T13:01:01.157Z,3.58
2023-01-11T13:04:05.044Z,1.38
2023-01-11T13:06:57.801Z,3.65
2023-01-11T13:09:50.854Z,0.60
2023-01-11T13:12:46.954Z,0.93
2023-01-11T13:15:29.208Z,0.70
2023-01-11T13:18:16.902Z,3.47
2023-01-11T13:21:01.732Z,2.67
2023-01-11T13:23:59.339Z,6.05
2023-01-11T13:26:44.316Z,0.82
2023-01-11T13:29:32.573Z,4.15
2023-01-11T13:32:07.345Z,1.08
2023-01-11T13:34:40.785Z,1.67
2023-01-11T13:37:39.461Z,2.25
2023-01-11T13:40:18.668Z,4.72
2023-01-11T13:42:56.136Z,4.25
2023-01-11T13:45:36.798Z,1.02
2023-01-11T13:48:16.373Z,4.25
2023-01-11T13:51:05.791Z,1.10
2023-01-11T13:53:38.932Z,5.72
2023-01-11T13:56:34.700Z,6.88
2023-01-11T13:59:13.960Z,2.53
2023-01-11T14:01:54.875Z,1.50
2023-01-11T14:04:42.232Z,1.05
2023-01-11T14:07:38.770Z,8.18
2023-01-11T14:10:29.883Z,2.28
2023-01-11T14:13:06.264Z,0.50
2023-01-11T14:15:52.732Z,1.60
2023-01-11T14:18:42.995Z,6.28
2023-01-11T14:21:50.682Z,0.60
2023-01-11T14:24:22.886Z,2.42
2023-01-11T14:27:13.069Z,0.80
2023-01-11T14:30:07.778Z,4.03
2023-01-11T14:35:25.866Z,1.02
2023-01-11T14:38:23.750Z,0.43
2023-01-11T14:41:25.069Z,0.52
2023-01-11T14:44:13.297Z,0.52
2023-01-11T14:47:16.420Z,2.58
2023-01-11T14:49:59.080Z,0.65
2023-01-11T14:52:40.075Z,1.00
2023-01-11T14:55:25.811Z,1.25
2023-01-11T14:57:59.056Z,1.02
2023-01-11T15:00:29.253Z,2.20
2023-01-11T15:03:02.293Z,0.60
2023-01-11T15:05:32.705Z,0.82
2023-01-11T15:08:27.739Z,0.80
2023-01-11T15:11:01.100Z,2.65
2023-01-11T15:13:45.989Z,0.65
2023-01-11T15:16:45.159Z,1.85
2023-01-11T15:19:34.280Z,2.42
2023-01-11T15:22:07.190Z,2.15
2023-01-11T15:24:44.717Z,0.77
2023-01-11T15:27:33.541Z,4.78
2023-01-11T15:30:05.714Z,4.00
2023-01-11T15:32:37.469Z,0.65
2023-01-11T15:35:35.611Z,0.38
2023-01-11T15:38:14.903Z,0.65
2023-01-11T15:40:47.736Z,0.45
2023-01-11T15:43:36.370Z,3.53
2023-01-11T15:46:51.903Z,0.80
2023-01-11T15:49:43.798Z,0.93
2023-01-11T15:52:51.975Z,0.80
2023-01-11T15:55:43.356Z,0.95
2023-01-11T15:58:31.595Z,0.52
2023-01-11T16:01:29.833Z,0.50
2023-01-11T16:04:06.772Z,0.80
2023-01-11T16:06:58.363Z,5.68
2023-01-11T16:09:56.159Z,1.33
2023-01-11T16:12:49.931Z,8.90
2023-01-11T16:15:41.603Z,0.95
2023-01-11T16:18:21.852Z,2.00
2023-01-11T16:21:03.130Z,0.73
2023-01-11T16:23:35.268Z,4.05
2023-01-11T16:26:06.537Z,5.68
2023-01-11T16:28:37.105Z,2.78
2023-01-11T16:31:07.686Z,2.65
2023-01-11T16:33:38.022Z,0.70
2023-01-11T16:36:23.027Z,4.05
2023-01-11T16:39:07.745Z,1.17
2023-01-11T16:42:07.015Z,0.70
2023-01-11T16:45:03.397Z,1.00
2023-01-11T16:47:33.705Z,1.92
2023-01-11T16:50:16.094Z,1.15
2023-01-11T16:52:56.005Z,7.55
2023-01-11T16:55:54.004Z,3.33
2023-01-11T16:58:29.993Z,0.63
2023-01-11T17:01:09.776Z,3.85
2023-01-11T17:03:50.069Z,1.70
2023-01-11T17:06:23.203Z,4.38
2023-01-11T17:08:57.788Z,5.45
2023-01-11T17:11:34.132Z,3.47
2023-01-11T17:14:13.946Z,0.68
2023-01-11T17:16:48.639Z,0.73
2023-01-11T17:19:25.202Z,1.33
2023-01-11T17:22:23.279Z,1.45
2023-01-11T17:25:03.903Z,1.50
2023-01-11T17:27:42.711Z,1.67
2023-01-11T17:30:17.619Z,1.65
2023-01-11T17:32:50.843Z,1.38
2023-01-11T17:35:29.124Z,1.38
2023-01-11T17:38:07.606Z,3.03
2023-01-11T17:40:42.261Z,1.50
2023-01-11T17:43:47.821Z,0.98
2023-01-11T17:46:21.366Z,1.95
2023-01-11T17:49:02.345Z,5.07
2023-01-11T17:51:35.258Z,0.65
2023-01-11T17:54:05.631Z,1.15
2023-01-11T17:56:44.772Z,2.53
2023-01-11T17:59:38.867Z,3.50
2023-01-11T18:02:16.048Z,3.38
2023-01-11T18:04:46.429Z,1.42
2023-01-11T18:07:21.202Z,2.70
2023-01-11T18:10:00.406Z,2.63
2023-01-11T18:12:35.426Z,0.68
2023-01-11T18:15:08.617Z,3.97
2023-01-11T18:17:41.493Z,8.75
2023-01-11T18:20:17.520Z,0.80
2023-01-11T18:23:15.035Z,0.77
2023-01-11T18:25:47.603Z,0.70
2023-01-11T18:28:22.288Z,1.23
2023-01-11T18:30:59.505Z,4.53
2023-01-11T18:33:35.841Z,0.65
2023-01-11T18:36:19.999Z,2.53
2023-01-11T18:38:51.738Z,0.68
2023-01-11T18:41:40.261Z,1.05
2023-01-11T18:44:11.918Z,4.35
2023-01-11T18:46:42.439Z,0.75
2023-01-11T18:49:12.658Z,3.60
2023-01-11T18:51:46.448Z,3.55
2023-01-11T18:54:19.021Z,0.77
2023-01-11T18:56:49.331Z,9.73
2023-01-11T18:59:19.498Z,1.02
2023-01-11T19:01:59.072Z,1.23
2023-01-11T19:04:38.298Z,3.05
2023-01-11T19:07:08.268Z,0.70
2023-01-11T19:09:38.664Z,3.70
2023-01-11T19:12:09.367Z,0.45
2023-01-11T19:14:39.469Z,0.65
2023-01-11T19:17:11.356Z,2.33
2023-01-11T19:19:41.810Z,0.73
2023-01-11T19:22:12.736Z,0.75
2023-01-11T19:24:43.189Z,0.50
2023-01-11T19:27:14.846Z,1.45
2023-01-11T19:29:45.063Z,0.55
2023-01-11T19:32:16.920Z,2.45
2023-01-11T19:34:47.312Z,1.05
2023-01-11T19:37:17.733Z,1.13
2023-01-11T19:39:48.217Z,2.25
2023-01-11T19:42:18.510Z,6.82
2023-01-11T19:44:48.424Z,1.13
2023-01-11T19:47:18.827Z,6.40
2023-01-11T19:49:49.166Z,5.82
2023-01-11T19:52:22.247Z,5.00
2023-01-11T19:54:52.848Z,0.40
2023-01-11T19:57:23.522Z,0.63
2023-01-11T19:59:53.867Z,0.88
2023-01-11T20:02:24.210Z,0.90
2023-01-11T20:04:54.562Z,1.52
2023-01-11T20:07:24.991Z,1.42
2023-01-11T20:09:55.116Z,1.00
2023-01-11T20:12:25.246Z,0.45
2023-01-11T20:14:57.991Z,0.93
2023-01-11T20:18:05.164Z,1.50
2023-01-11T20:20:35.909Z,0.75
2023-01-11T20:23:06.235Z,4.93
2023-01-11T20:25:36.158Z,3.33
2023-01-11T20:28:06.669Z,2.45
2023-01-11T20:30:36.839Z,0.57
2023-01-11T20:33:07.668Z,3.42
2023-01-11T20:35:39.109Z,0.63
2023-01-11T20:38:09.362Z,0.30
2023-01-11T20:40:42.271Z,2.80
2023-01-11T20:43:12.805Z,0.50
2023-01-11T20:45:43.069Z,1.08
2023-01-11T20:48:13.269Z,0.80
2023-01-11T20:50:43.467Z,1.08
2023-01-11T20:53:16.198Z,5.05
2023-01-11T20:55:46.809Z,3.47
2023-01-11T20:58:16.894Z,10.98
2023-01-11T21:00:47.141Z,1.10
2023-01-11T21:03:17.885Z,5.57
2023-01-11T21:05:48.287Z,3.50
2023-01-11T21:08:18.301Z,1.67
2023-01-11T21:10:48.421Z,2.72
2023-01-11T21:13:18.624Z,3.38
2023-01-11T21:15:48.864Z,5.68
2023-01-11T21:18:19.136Z,2.38
2023-01-11T21:20:50.917Z,3.30
2023-01-11T21:23:21.822Z,2.28
2023-01-11T21:25:51.978Z,3.05
2023-01-11T21:28:22.432Z,12.43
2023-01-11T21:30:52.708Z,5.63
2023-01-11T21:33:23.703Z,3.55
2023-01-11T21:35:54.106Z,0.75
2023-01-11T21:38:24.114Z,3.30
2023-01-11T21:40:54.336Z,3.80
2023-01-11T21:43:24.573Z,4.97
2023-01-11T21:45:58.246Z,6.13
2023-01-11T21:48:28.723Z,4.50
2023-01-11T21:50:59.587Z,4.90
2023-01-11T21:53:34.468Z,3.88
2023-01-11T21:56:09.264Z,2.00
2023-01-11T21:58:39.540Z,10.50
2023-01-11T22:01:15.322Z,8.88
2023-01-11T22:03:45.526Z,0.70
2023-01-11T22:06:19.168Z,0.80
2023-01-11T22:08:49.556Z,3.80
2023-01-11T22:11:20.338Z,3.22
2023-01-11T22:13:50.774Z,2.38
2023-01-11T22:16:21.123Z,3.83
2023-01-11T22:18:51.406Z,0.70
2023-01-11T22:21:22.071Z,1.33
2023-01-11T22:23:56.390Z,1.45
2023-01-11T22:26:27.888Z,4.38
2023-01-11T22:29:13.654Z,5.35
2023-01-11T22:31:56.546Z,2.15
2023-01-11T22:34:27.142Z,2.75
2023-01-11T22:36:58.177Z,1.83
2023-01-11T22:39:30.656Z,3.75
2023-01-11T22:42:01.320Z,5.75
2023-01-11T22:44:31.786Z,1.27
2023-01-11T22:47:02.094Z,1.08
2023-01-11T22:49:33.235Z,1.98
2023-01-11T22:52:03.615Z,1.30
2023-01-11T22:54:33.854Z,3.63
2023-01-11T22:57:03.968Z,6.80
2023-01-11T22:59:34.157Z,5.80
2023-01-11T23:02:04.546Z,2.03
2023-01-11T23:04:34.944Z,2.38
2023-01-11T23:07:06.172Z,4.82
2023-01-11T23:09:36.461Z,4.25
2023-01-11T23:12:25.742Z,3.50
2023-01-11T23:14:55.842Z,11.73
2023-01-11T23:17:25.819Z,5.75
2023-01-11T23:22:25.350Z,4.13
2023-01-11T23:24:55.336Z,1.42
2023-01-11T23:27:25.550Z,5.10
2023-01-11T23:29:56.037Z,9.45
2023-01-11T23:32:26.215Z,2.97
2023-01-11T23:34:56.613Z,2.25
2023-01-11T23:37:26.707Z,0.93
2023-01-11T23:39:56.790Z,6.22
2023-01-11T23:42:30.179Z,1.77
2023-01-11T23:45:00.451Z,0.88
2023-01-11T23:47:32.613Z,6.57
2023-01-11T23:50:03.119Z,3.40
2023-01-11T23:52:34.372Z,2.53
2023-01-11T23:55:04.735Z,5.60
2023-01-11T23:57:34.905Z,1.67
